• Join FlightAware (Why Join?)
  • Login
  • US Flag 
01:07AM EDT


 

Airport Tracker/Info


-or-


 

Live Flight TrackerFlight Track Log ✈ USC3802 ✈ 23-Feb-2012 ✈ KICT - KOMA

Flight Track Log - Related Links

Times and Time Zones

All times are in EST time to prevent confusion due to time zone crossing. See the USC3802 flight status page for this flight to view local times or setup timezone preferences in your user account.

Time Position Orientation Groundspeed Altitude Reporting Facility
EST Latitude Longitude Course Direction KTS MPH feet Rate Location/Type
08:37AM 37.6608 -97.4206 22° Northeast 88 101 1,800  Level Kansas City Center
08:38AM 37.6944 -97.4036 31° Northeast 99 114 3,800 1,260 Climbing Kansas City Center
08:39AM 37.7242 -97.3811 35° Northeast 119 137 4,900 1,080 Climbing Kansas City Center
08:40AM 37.7497 -97.3583 25° Northeast 111 128 6,000 960 Climbing Kansas City Center
08:41AM 37.7794 -97.3411 16° North 113 130 6,900 480 Climbing Kansas City Center
08:42AM 37.8131 -97.3292 12° North 140 161 7,000  Climbing Kansas City Center
08:43AM 37.8550 -97.3175 16° North 153 176 7,000  Level Kansas City Center
08:44AM 37.8803 -97.3081 15° North 170 196 7,000  Level Kansas City Center
08:46AM 37.9644 -97.2797 19° North 165 190 7,000  Level Kansas City Center
08:47AM 38.0086 -97.2603 19° North 160 184 7,000  Level Kansas City Center
08:49AM 38.0972 -97.2211 18° North 160 184 7,000  Level Kansas City Center
08:50AM 38.1392 -97.2042 13° North 160 184 7,000  Level Kansas City Center
08:51AM 38.1856 -97.1900 20° North 166 191 7,000  Level Kansas City Center
08:52AM 38.2275 -97.1706 16° North 166 191 7,000  Level Kansas City Center
08:53AM 38.2739 -97.1536 18° North 166 191 7,000  Level Kansas City Center
08:54AM 38.3203 -97.1342 19° North 166 191 7,000  Level Kansas City Center
08:55AM 38.3664 -97.1144 17° North 166 191 7,000  Level Kansas City Center
08:56AM 38.4106 -97.0975 17° North 166 191 7,000  Level Kansas City Center
08:57AM 38.4547 -97.0806 16° North 172 198 7,100  Climbing Kansas City Center
08:58AM 38.5011 -97.0636 18° North 172 198 7,100  Level Kansas City Center
08:59AM 38.5536 -97.0414 17° North 167 192 7,100  Level Kansas City Center
09:01AM 38.6483 -97.0050 16° North 167 192 7,100  Level Kansas City Center
09:02AM 38.6944 -96.9878 18° North 167 192 7,100  Level Kansas City Center
09:03AM 38.7492 -96.9656 17° North 173 199 7,100  Level Kansas City Center
09:04AM 38.7994 -96.9461 17° North 183 211 7,100  Level Kansas City Center
09:05AM 38.8500 -96.9264 18° North 183 211 7,100  Level Kansas City Center
09:06AM 38.8964 -96.9067 20° North 183 211 7,100  Level Kansas City Center
09:07AM 38.9447 -96.8842 17° North 183 211 7,100  Level Kansas City Center
09:08AM 39.0014 -96.8619 17° North 188 216 7,100  Level Kansas City Center
09:09AM 39.0517 -96.8422 19° North 188 216 7,100  Level Kansas City Center
09:10AM 39.0958 -96.8222 15° North 188 216 7,100  Level Kansas City Center
09:11AM 39.1525 -96.8025 18° North 188 216 7,100  Level Kansas City Center
09:12AM 39.1989 -96.7828 17° North 188 216 7,100  Level Kansas City Center
09:13AM 39.2492 -96.7628 18° North 188 216 7,100  Level Kansas City Center
09:14AM 39.3039 -96.7403 17° North 188 216 7,100  Level Kansas City Center
09:15AM 39.3542 -96.7206 20° North 188 216 7,100  Level Kansas City Center
09:16AM 39.3983 -96.7003 18° North 188 216 7,100  Level Kansas City Center
09:17AM 39.4467 -96.6803 16° North 188 216 7,100  Level Kansas City Center
09:18AM 39.4992 -96.6603 21° North 188 216 7,100  Level Kansas City Center
09:19AM 39.5456 -96.6375 19° North 183 211 7,100  Level Kansas City Center
09:20AM 39.5958 -96.6147 18° North 183 211 7,100  Level Kansas City Center
09:21AM 39.6378 -96.5972 16° North 183 211 7,100  Level Kansas City Center
09:22AM 39.6861 -96.5797 17° North 183 211 7,100  Level Kansas City Center
09:24AM 39.7811 -96.5414 19° North 181 208 7,100  Level Minneapolis Center
09:25AM 39.8297 -96.5194 20° North 181 208 7,100  Level Minneapolis Center
09:26AM 39.8761 -96.4975 17° North 181 208 7,100  Level Minneapolis Center
09:27AM 39.9244 -96.4781 19° North 176 203 7,100  Level Minneapolis Center
09:28AM 39.9728 -96.4561 18° North 176 203 7,100  Level Minneapolis Center
09:29AM 40.0192 -96.4367 18° North 171 197 7,100  Level Minneapolis Center
09:30AM 40.0653 -96.4172 15° North 171 197 7,100  Level Minneapolis Center
09:31AM 40.1136 -96.4006 18° North 171 197 7,100  Level Minneapolis Center
09:33AM 40.2083 -96.3614 18° North 171 197 7,100  Level Minneapolis Center
09:34AM 40.2544 -96.3419 19° North 171 197 7,100  Level Minneapolis Center
09:35AM 40.3031 -96.3197 38° Northeast 171 197 7,100  Level Minneapolis Center
09:36AM 40.3308 -96.2911 19° North 176 203 7,100  Level Minneapolis Center
09:37AM 40.3811 -96.2689 20° North 175 201 7,100  Level Minneapolis Center
09:38AM 40.4233 -96.2489 North 174 200 7,100  Level Minneapolis Center
09:39AM 40.4858 -96.2408 21° North 171 197 7,100  Level Minneapolis Center
09:40AM 40.5303 -96.2183 43° Northeast 171 197 7,100  Level Minneapolis Center
09:41AM 40.5625 -96.1789 16° North 177 204 7,100  Level Minneapolis Center
09:42AM 40.6150 -96.1592 35° Northeast 171 197 7,100  Level Minneapolis Center
09:43AM 40.6489 -96.1281 20° North 171 197 7,100  Level Minneapolis Center
09:44AM 40.6953 -96.1053 20° North 170 196 7,100  Level Minneapolis Center
09:45AM 40.7375 -96.0853 18° North 169 194 7,100  Level Minneapolis Center
09:46AM 40.7836 -96.0653 24° Northeast 167 192 7,100  Level Minneapolis Center
09:47AM 40.8281 -96.0397 22° Northeast 167 192 7,100  Level Minneapolis Center
09:48AM 40.8700 -96.0169 25° Northeast 170 196 7,100 -480 Level Minneapolis Center
09:49AM 40.9208 -95.9861 23° Northeast 185 213 6,100 -1,020 Descending Minneapolis Center
09:50AM 40.9669 -95.9606 23° Northeast 197 227 5,100 -1,020 Descending Minneapolis Center
09:51AM 41.0133 -95.9347 23° Northeast 183 211 4,200 -600 Descending Minneapolis Center
09:53AM 41.1083 -95.8808 North 176 203 3,400 -660 Descending Minneapolis Center
09:55AM 41.2044 -95.8653 356° North 163 188 1,700 -600 Descending Minneapolis Center
09:56AM 41.2500 -95.8700 356° North 146 168 1,700  Level Minneapolis Center